createdAt,value
2023-04-10T00:00:38.342Z,6.10
2023-04-10T00:03:06.105Z,6.10
2023-04-10T00:05:33.500Z,6.10
2023-04-10T00:08:00.957Z,6.10
2023-04-10T00:10:30.508Z,6.10
2023-04-10T00:12:59.116Z,6.10
2023-04-10T00:15:26.458Z,6.10
2023-04-10T00:17:55.432Z,6.10
2023-04-10T00:20:23.932Z,6.10
2023-04-10T00:22:51.208Z,6.10
2023-04-10T00:25:18.485Z,6.10
2023-04-10T00:27:45.643Z,6.10
2023-04-10T00:30:12.821Z,6.10
2023-04-10T00:32:40.119Z,6.10
2023-04-10T00:35:09.045Z,6.10
2023-04-10T00:37:36.705Z,6.10
2023-04-10T00:40:06.304Z,6.10
2023-04-10T00:42:33.549Z,6.10
2023-04-10T00:45:01.064Z,6.10
2023-04-10T00:47:28.869Z,6.10
2023-04-10T00:49:56.137Z,6.20
2023-04-10T00:52:25.677Z,6.20
2023-04-10T00:54:53.006Z,6.20
2023-04-10T00:57:20.323Z,6.20
2023-04-10T00:59:48.988Z,6.20
2023-04-10T01:02:16.316Z,6.30
2023-04-10T01:04:44.005Z,6.30
2023-04-10T01:07:38.516Z,6.30
2023-04-10T01:10:26.333Z,6.30
2023-04-10T01:13:07.065Z,6.30
2023-04-10T01:15:57.800Z,6.30
2023-04-10T01:18:43.519Z,6.30
2023-04-10T01:21:14.843Z,6.30
2023-04-10T01:24:11.724Z,6.30
2023-04-10T01:27:17.052Z,6.30
2023-04-10T01:29:52.122Z,6.30
2023-04-10T01:32:22.604Z,6.30
2023-04-10T01:34:57.275Z,6.40
2023-04-10T01:37:30.372Z,6.40
2023-04-10T01:40:07.107Z,6.40
2023-04-10T01:42:42.354Z,6.30
2023-04-10T01:45:18.559Z,6.40
2023-04-10T01:47:46.077Z,6.40
2023-04-10T01:50:14.055Z,6.40
2023-04-10T01:52:42.354Z,6.40
2023-04-10T01:55:10.285Z,6.40
2023-04-10T01:57:37.550Z,6.40
2023-04-10T02:00:05.526Z,6.40
2023-04-10T02:02:34.235Z,6.40
2023-04-10T02:05:01.692Z,6.40
2023-04-10T02:07:31.522Z,6.30
2023-04-10T02:10:37.407Z,6.30
2023-04-10T02:13:11.490Z,6.40
2023-04-10T02:15:43.786Z,6.30
2023-04-10T02:18:12.123Z,6.30
2023-04-10T02:20:39.243Z,6.30
2023-04-10T02:23:06.983Z,6.30
2023-04-10T02:25:36.902Z,6.30
2023-04-10T02:28:05.553Z,6.30
2023-04-10T02:30:36.003Z,6.30
2023-04-10T02:33:03.211Z,6.30
2023-04-10T02:35:34.551Z,6.30
2023-04-10T02:38:01.728Z,6.20
2023-04-10T02:40:28.876Z,6.20
2023-04-10T02:42:56.202Z,6.20
2023-04-10T02:45:23.292Z,6.20
2023-04-10T02:47:50.425Z,6.20
2023-04-10T02:50:18.194Z,6.20
2023-04-10T02:52:45.460Z,6.20
2023-04-10T02:55:12.777Z,6.20
2023-04-10T02:57:41.510Z,6.20
2023-04-10T03:00:09.817Z,6.20
2023-04-10T03:02:37.357Z,6.20
2023-04-10T03:05:04.923Z,6.20
2023-04-10T03:07:32.327Z,6.20
2023-04-10T03:09:59.497Z,6.20
2023-04-10T03:12:26.593Z,6.10
2023-04-10T03:14:53.730Z,6.20
2023-04-10T03:17:21.015Z,6.10
2023-04-10T03:19:48.102Z,6.10
2023-04-10T03:22:15.187Z,6.10
2023-04-10T03:24:42.412Z,6.10
2023-04-10T03:27:09.541Z,6.00
2023-04-10T03:29:36.643Z,6.00
2023-04-10T03:32:03.877Z,6.00
2023-04-10T03:34:31.010Z,6.00
2023-04-10T03:36:58.097Z,6.00
2023-04-10T03:39:25.369Z,6.00
2023-04-10T03:41:52.519Z,6.00
2023-04-10T03:44:19.787Z,6.00
2023-04-10T03:46:46.961Z,6.00
2023-04-10T03:49:14.026Z,5.90
2023-04-10T03:51:41.092Z,5.90
2023-04-10T03:54:08.163Z,5.90
2023-04-10T03:56:35.439Z,5.90
2023-04-10T03:59:02.529Z,5.80
2023-04-10T04:01:29.957Z,5.80
2023-04-10T04:03:57.593Z,5.80
2023-04-10T04:06:25.578Z,5.80
2023-04-10T04:08:52.783Z,5.70
2023-04-10T04:11:19.915Z,5.60
2023-04-10T04:13:46.938Z,5.60
2023-04-10T04:16:14.174Z,5.60
2023-04-10T04:18:41.279Z,5.60
2023-04-10T04:21:08.664Z,5.50
2023-04-10T04:23:36.007Z,5.50
2023-04-10T04:26:03.152Z,5.50
2023-04-10T04:28:30.497Z,5.50
2023-04-10T04:30:57.715Z,5.40
2023-04-10T04:33:24.792Z,5.40
2023-04-10T04:35:51.919Z,5.40
2023-04-10T04:38:20.289Z,5.30
2023-04-10T04:40:47.404Z,5.30
2023-04-10T04:43:14.538Z,5.30
2023-04-10T04:45:41.613Z,5.30
2023-04-10T04:48:08.665Z,5.30
2023-04-10T04:50:35.891Z,5.20
2023-04-10T04:53:02.974Z,5.20
2023-04-10T04:55:30.034Z,5.20
2023-04-10T04:57:57.106Z,5.20
2023-04-10T05:00:24.210Z,5.20
2023-04-10T05:02:51.607Z,5.30
2023-04-10T05:05:18.795Z,5.30
2023-04-10T05:07:45.858Z,5.30
2023-04-10T05:10:12.971Z,5.30
2023-04-10T05:12:41.941Z,5.30
2023-04-10T05:15:09.904Z,5.40
2023-04-10T05:17:37.126Z,5.40
2023-04-10T05:20:04.938Z,5.40
2023-04-10T05:22:32.554Z,5.50
2023-04-10T05:25:02.496Z,5.50
2023-04-10T05:27:29.760Z,5.50
2023-04-10T05:29:56.829Z,5.60
2023-04-10T05:32:24.019Z,5.60
2023-04-10T05:34:51.444Z,5.70
2023-04-10T05:37:18.573Z,5.70
2023-04-10T05:39:45.818Z,5.80
2023-04-10T05:42:13.571Z,5.80
2023-04-10T05:44:40.897Z,5.90
2023-04-10T05:47:08.027Z,6.00
2023-04-10T05:49:35.166Z,6.10
2023-04-10T05:52:02.274Z,6.10
2023-04-10T05:54:29.362Z,6.20
2023-04-10T05:56:56.822Z,6.20
2023-04-10T05:59:24.031Z,6.40
2023-04-10T06:01:51.684Z,6.40
2023-04-10T06:04:19.141Z,6.50
2023-04-10T06:06:46.460Z,6.60
2023-04-10T06:09:13.546Z,6.70
2023-04-10T06:11:41.132Z,6.80
2023-04-10T06:14:08.215Z,7.00
2023-04-10T06:16:35.532Z,7.00
2023-04-10T06:19:02.967Z,7.10
2023-04-10T06:21:30.057Z,7.20
2023-04-10T06:23:57.166Z,7.30
2023-04-10T06:26:25.988Z,7.40
2023-04-10T06:28:53.369Z,7.50
2023-04-10T06:31:24.280Z,7.60
2023-04-10T06:33:51.488Z,7.60
2023-04-10T06:36:18.667Z,7.70
2023-04-10T06:38:45.859Z,7.80
2023-04-10T06:41:12.950Z,7.80
2023-04-10T06:43:40.373Z,7.90
2023-04-10T06:46:07.773Z,7.90
2023-04-10T06:48:34.959Z,8.00
2023-04-10T06:51:02.135Z,8.10
2023-04-10T06:53:29.679Z,8.20
2023-04-10T06:55:57.481Z,8.30
2023-04-10T06:58:24.666Z,8.30
2023-04-10T07:00:52.068Z,8.40
2023-04-10T07:03:19.289Z,8.50
2023-04-10T07:05:46.492Z,8.60
2023-04-10T07:08:13.605Z,8.70
2023-04-10T07:10:40.788Z,8.80
2023-04-10T07:13:08.111Z,8.90
2023-04-10T07:15:35.305Z,9.00
2023-04-10T07:18:02.533Z,9.00
2023-04-10T07:20:29.720Z,9.10
2023-04-10T07:22:56.881Z,9.20
2023-04-10T07:25:23.959Z,9.30
2023-04-10T07:27:51.212Z,9.40
2023-04-10T07:30:19.654Z,9.60
2023-04-10T07:32:46.986Z,9.70
2023-04-10T07:35:17.012Z,9.70
2023-04-10T07:37:44.391Z,9.80
2023-04-10T07:40:12.140Z,9.80
2023-04-10T07:42:39.368Z,9.90
2023-04-10T07:45:07.398Z,10.00
2023-04-10T07:47:34.522Z,10.10
2023-04-10T07:50:01.807Z,10.20
2023-04-10T07:52:29.017Z,10.30
2023-04-10T07:54:56.114Z,10.50
2023-04-10T07:57:24.548Z,10.60
2023-04-10T07:59:51.618Z,10.80
2023-04-10T08:02:18.761Z,10.90
2023-04-10T08:04:46.132Z,10.90
2023-04-10T08:07:13.363Z,11.10
2023-04-10T08:09:40.833Z,11.20
2023-04-10T08:12:07.937Z,11.30
2023-04-10T08:14:35.045Z,11.50
2023-04-10T08:17:02.362Z,11.60
2023-04-10T08:19:29.556Z,11.70
2023-04-10T08:21:56.646Z,11.90
2023-04-10T08:24:23.719Z,12.00
2023-04-10T08:26:50.913Z,12.20
2023-04-10T08:29:18.003Z,12.30
2023-04-10T08:31:45.090Z,12.40
2023-04-10T08:34:12.238Z,12.60
2023-04-10T08:36:39.306Z,12.70
2023-04-10T08:39:06.430Z,12.70
2023-04-10T08:41:33.639Z,12.70
2023-04-10T08:44:00.812Z,12.70
2023-04-10T08:46:31.718Z,12.70
2023-04-10T08:49:05.853Z,12.90
2023-04-10T08:51:47.843Z,13.00
2023-04-10T08:54:26.136Z,13.20
2023-04-10T08:56:56.024Z,13.40
2023-04-10T08:59:23.411Z,13.50
2023-04-10T09:01:50.715Z,13.60
2023-04-10T09:04:21.814Z,13.80
2023-04-10T09:06:49.075Z,13.90
2023-04-10T09:09:16.317Z,14.00
2023-04-10T09:11:52.521Z,14.00
2023-04-10T09:14:34.637Z,14.00
2023-04-10T09:17:20.353Z,14.10
2023-04-10T09:19:55.737Z,14.20
2023-04-10T09:22:34.822Z,14.30
2023-04-10T09:25:04.360Z,14.40
2023-04-10T09:27:35.327Z,14.50
2023-04-10T09:30:03.506Z,14.70
2023-04-10T09:32:38.124Z,14.80
2023-04-10T09:35:06.038Z,14.90
2023-04-10T09:37:34.642Z,14.90
2023-04-10T09:40:02.619Z,15.00
2023-04-10T09:42:37.305Z,15.10
2023-04-10T09:45:06.008Z,15.20
2023-04-10T09:47:33.258Z,15.40
2023-04-10T09:50:01.200Z,15.60
2023-04-10T09:52:37.416Z,15.80
2023-04-10T09:55:09.962Z,15.90
2023-04-10T09:57:37.102Z,16.00
2023-04-10T10:00:07.259Z,16.10
2023-04-10T10:02:40.770Z,16.30
2023-04-10T10:05:08.673Z,16.00
2023-04-10T10:07:36.793Z,15.90
2023-04-10T10:10:06.384Z,16.00
2023-04-10T10:12:50.538Z,15.90
2023-04-10T10:15:46.789Z,16.00
2023-04-10T10:18:49.518Z,16.00
2023-04-10T10:21:19.058Z,16.20
2023-04-10T10:23:48.326Z,16.40
2023-04-10T10:26:16.177Z,16.60
2023-04-10T10:28:46.385Z,16.80
2023-04-10T10:31:13.935Z,17.00
2023-04-10T10:33:41.796Z,17.10
2023-04-10T10:36:10.892Z,17.20
2023-04-10T10:38:48.192Z,17.40
2023-04-10T10:41:32.852Z,17.40
2023-04-10T10:44:31.902Z,17.70
2023-04-10T10:47:06.352Z,17.80
2023-04-10T10:49:56.878Z,18.10
2023-04-10T10:53:02.537Z,18.40
2023-04-10T10:55:31.683Z,18.50
2023-04-10T10:58:09.776Z,18.10
2023-04-10T11:00:51.815Z,18.00
2023-04-10T11:03:19.167Z,18.10
2023-04-10T11:06:07.218Z,18.40
2023-04-10T11:08:35.309Z,18.60
2023-04-10T11:11:16.293Z,18.80
2023-04-10T11:14:06.501Z,18.90
2023-04-10T11:16:34.905Z,18.90
2023-04-10T11:19:14.160Z,18.80
2023-04-10T11:22:08.147Z,18.90
2023-04-10T11:24:53.068Z,19.20
2023-04-10T11:27:48.619Z,19.60
2023-04-10T11:30:37.891Z,19.80
2023-04-10T11:33:06.011Z,19.40
2023-04-10T11:35:33.996Z,19.20
2023-04-10T11:38:16.709Z,19.20
2023-04-10T11:41:04.314Z,19.20
2023-04-10T11:43:33.793Z,19.50
2023-04-10T11:46:06.225Z,19.60
2023-04-10T11:48:33.990Z,19.80
2023-04-10T11:51:12.265Z,19.80
2023-04-10T11:53:41.319Z,20.10
2023-04-10T11:56:22.078Z,20.30
2023-04-10T11:58:54.726Z,20.80
2023-04-10T12:01:23.748Z,20.90
2023-04-10T12:03:51.692Z,20.60
2023-04-10T12:06:19.755Z,20.40
2023-04-10T12:08:51.522Z,20.50
2023-04-10T12:11:25.648Z,20.20
2023-04-10T12:13:55.142Z,20.30
2023-04-10T12:16:22.882Z,21.00
2023-04-10T12:18:50.727Z,21.20
2023-04-10T12:21:18.321Z,20.80
2023-04-10T12:23:45.618Z,20.00
2023-04-10T12:26:19.060Z,19.40
2023-04-10T12:28:59.636Z,18.90
2023-04-10T12:31:28.380Z,18.80
2023-04-10T12:33:57.884Z,19.20
2023-04-10T12:36:30.556Z,19.60
2023-04-10T12:39:18.861Z,19.90
2023-04-10T12:41:45.965Z,20.00
2023-04-10T12:44:14.541Z,20.10
2023-04-10T12:46:43.521Z,20.10
2023-04-10T12:49:16.464Z,20.30
2023-04-10T12:51:51.760Z,20.40
2023-04-10T12:54:33.554Z,20.50
2023-04-10T12:57:02.318Z,20.60
2023-04-10T12:59:30.466Z,20.40
2023-04-10T13:01:57.766Z,20.10
2023-04-10T13:04:25.405Z,20.00
2023-04-10T13:06:53.049Z,20.30
2023-04-10T13:09:20.370Z,20.50
2023-04-10T13:11:48.568Z,20.30
2023-04-10T13:14:17.891Z,19.90
2023-04-10T13:16:45.137Z,19.80
2023-04-10T13:19:13.023Z,19.90
2023-04-10T13:21:40.203Z,20.30
2023-04-10T13:24:07.292Z,20.50
2023-04-10T13:26:34.383Z,20.60
2023-04-10T13:29:01.466Z,20.80
2023-04-10T13:31:28.703Z,20.90
2023-04-10T13:33:55.803Z,21.20
2023-04-10T13:36:23.404Z,21.50
2023-04-10T13:38:50.955Z,21.80
2023-04-10T13:41:18.302Z,21.90
2023-04-10T13:43:45.471Z,21.70
2023-04-10T13:46:12.561Z,21.70
2023-04-10T13:48:41.469Z,21.70
2023-04-10T13:51:09.839Z,21.50
2023-04-10T13:53:36.980Z,21.50
2023-04-10T13:56:04.327Z,21.40
2023-04-10T13:58:34.250Z,21.40
2023-04-10T14:01:01.967Z,21.40
2023-04-10T14:03:29.333Z,21.70
2023-04-10T14:05:56.590Z,21.90
2023-04-10T14:08:23.727Z,22.10
2023-04-10T14:10:51.503Z,22.30
2023-04-10T14:13:19.262Z,22.10
2023-04-10T14:15:46.787Z,22.10
2023-04-10T14:18:17.450Z,22.20
2023-04-10T14:20:44.808Z,22.40
2023-04-10T14:23:18.285Z,22.60
2023-04-10T14:25:46.861Z,22.90
2023-04-10T14:28:17.843Z,22.50
2023-04-10T14:30:50.903Z,22.00
2023-04-10T14:33:20.069Z,21.50
2023-04-10T14:35:48.418Z,21.20
2023-04-10T14:38:16.004Z,21.30
2023-04-10T14:40:43.771Z,21.60
2023-04-10T14:43:10.900Z,22.00
2023-04-10T14:45:38.002Z,22.20
2023-04-10T14:48:05.242Z,22.40
2023-04-10T14:50:33.419Z,22.40
2023-04-10T14:53:00.866Z,22.40
2023-04-10T14:55:31.080Z,22.40
2023-04-10T14:57:58.986Z,22.40
2023-04-10T15:00:26.835Z,22.40
2023-04-10T15:02:54.183Z,22.50
2023-04-10T15:05:23.138Z,22.40
2023-04-10T15:07:50.273Z,22.50
2023-04-10T15:10:17.514Z,22.40
2023-04-10T15:12:44.721Z,22.30
2023-04-10T15:15:11.978Z,22.10
2023-04-10T15:17:39.106Z,21.90
2023-04-10T15:20:07.078Z,21.60
2023-04-10T15:22:35.674Z,21.20
2023-04-10T15:25:03.097Z,20.90
2023-04-10T15:27:30.642Z,20.70
2023-04-10T15:29:57.767Z,20.60
2023-04-10T15:32:25.032Z,20.40
2023-04-10T15:34:52.233Z,20.20
2023-04-10T15:37:19.314Z,20.00
2023-04-10T15:39:46.391Z,19.80
2023-04-10T15:42:13.614Z,19.70
2023-04-10T15:44:40.826Z,19.50
2023-04-10T15:47:07.974Z,19.30
2023-04-10T15:49:38.274Z,19.30
2023-04-10T15:52:07.269Z,19.10
2023-04-10T15:54:35.082Z,19.00
2023-04-10T15:57:03.683Z,18.80
2023-04-10T15:59:32.771Z,18.70
2023-04-10T16:01:59.933Z,18.60
2023-04-10T16:04:27.191Z,18.50
2023-04-10T16:06:56.306Z,18.50
2023-04-10T16:09:26.416Z,18.50
2023-04-10T16:11:54.968Z,18.40
2023-04-10T16:14:22.765Z,18.40
2023-04-10T16:16:51.084Z,18.20
2023-04-10T16:19:18.218Z,18.20
2023-04-10T16:21:45.301Z,18.10
2023-04-10T16:24:12.472Z,18.10
2023-04-10T16:26:39.591Z,17.90
2023-04-10T16:29:06.726Z,17.70
2023-04-10T16:31:33.891Z,17.60
2023-04-10T16:34:01.374Z,17.60
2023-04-10T16:36:28.466Z,17.50
2023-04-10T16:38:55.786Z,17.30
2023-04-10T16:41:23.152Z,17.20
2023-04-10T16:43:50.288Z,17.10
2023-04-10T16:46:17.660Z,17.00
2023-04-10T16:48:44.975Z,16.90
2023-04-10T16:51:18.802Z,16.80
2023-04-10T16:53:46.125Z,16.70
2023-04-10T16:56:13.474Z,16.60
2023-04-10T16:58:42.069Z,16.50
2023-04-10T17:01:18.361Z,16.40
2023-04-10T17:03:47.715Z,16.30
2023-04-10T17:06:16.248Z,16.10
2023-04-10T17:08:44.436Z,16.00
2023-04-10T17:11:15.995Z,15.90
2023-04-10T17:13:43.172Z,15.80
2023-04-10T17:16:10.711Z,15.70
2023-04-10T17:18:37.962Z,15.60
2023-04-10T17:21:05.519Z,15.40
2023-04-10T17:23:32.784Z,15.30
2023-04-10T17:26:00.150Z,15.40
2023-04-10T17:30:54.738Z,15.00
2023-04-10T17:33:23.632Z,14.90
2023-04-10T17:35:52.034Z,14.70
2023-04-10T17:38:19.876Z,14.60
2023-04-10T17:40:47.387Z,14.50
2023-04-10T17:43:14.480Z,14.40
2023-04-10T17:45:41.718Z,14.30
2023-04-10T17:48:10.266Z,14.20
2023-04-10T17:50:37.519Z,14.10
2023-04-10T17:53:06.072Z,14.00
2023-04-10T17:55:39.407Z,13.90
2023-04-10T17:58:06.672Z,13.80
2023-04-10T18:00:34.376Z,13.70
2023-04-10T18:03:01.617Z,13.60
2023-04-10T18:05:34.760Z,13.50
2023-04-10T18:08:02.137Z,13.40
2023-04-10T18:10:29.193Z,13.30
2023-04-10T18:12:59.101Z,13.20
2023-04-10T18:15:27.253Z,13.10
2023-04-10T18:20:22.795Z,13.00
2023-04-10T18:22:49.929Z,12.90
2023-04-10T18:25:20.780Z,12.80
2023-04-10T18:28:12.992Z,12.70
2023-04-10T18:30:40.521Z,12.60
2023-04-10T18:33:11.088Z,12.50
2023-04-10T18:35:38.984Z,12.40
2023-04-10T18:38:06.423Z,12.30
2023-04-10T18:40:35.039Z,12.20
2023-04-10T18:43:02.293Z,12.10
2023-04-10T18:45:29.923Z,12.00
2023-04-10T18:47:57.581Z,11.90
2023-04-10T18:50:25.159Z,11.90
2023-04-10T18:52:52.943Z,11.80
2023-04-10T18:55:21.541Z,11.70
2023-04-10T18:57:48.872Z,11.60
2023-04-10T19:00:16.804Z,11.60
2023-04-10T19:02:44.643Z,11.50
2023-04-10T19:05:14.384Z,11.50
2023-04-10T19:07:47.227Z,11.40
2023-04-10T19:10:20.911Z,11.40
2023-04-10T19:12:49.301Z,11.20
2023-04-10T19:17:44.703Z,11.00
2023-04-10T19:20:12.641Z,11.00
2023-04-10T19:22:40.709Z,10.80
2023-04-10T19:25:09.104Z,10.80
2023-04-10T19:27:37.157Z,10.70
2023-04-10T19:30:06.917Z,10.60
2023-04-10T19:32:34.332Z,10.60
2023-04-10T19:35:02.375Z,10.50
2023-04-10T19:37:31.477Z,10.40
2023-04-10T19:39:58.713Z,10.30
2023-04-10T19:42:26.236Z,10.20
2023-04-10T19:44:53.787Z,10.20
2023-04-10T19:47:21.603Z,10.20
2023-04-10T19:49:49.217Z,10.10
2023-04-10T19:52:17.020Z,10.00
2023-04-10T19:54:44.357Z,9.90
2023-04-10T19:57:11.684Z,9.80
2023-04-10T19:59:39.138Z,9.80
2023-04-10T20:02:09.163Z,9.70
2023-04-10T20:04:37.073Z,9.60
2023-04-10T20:07:04.500Z,9.60
2023-04-10T20:09:31.778Z,9.50
2023-04-10T20:11:59.025Z,9.40
2023-04-10T20:14:26.153Z,9.40
2023-04-10T20:16:53.298Z,9.30
2023-04-10T20:19:20.553Z,9.30
2023-04-10T20:21:47.900Z,9.20
2023-04-10T20:24:15.283Z,9.20
2023-04-10T20:26:42.417Z,9.10
2023-04-10T20:29:09.469Z,9.10
2023-04-10T20:31:36.610Z,9.10
2023-04-10T20:34:04.020Z,9.00
2023-04-10T20:36:32.435Z,8.90
2023-04-10T20:38:59.545Z,8.80
2023-04-10T20:41:27.876Z,8.80
2023-04-10T20:43:57.413Z,8.70
2023-04-10T20:46:27.150Z,8.60
2023-04-10T20:48:59.300Z,8.60
2023-04-10T20:51:28.085Z,8.50
2023-04-10T20:53:55.288Z,8.50
2023-04-10T20:56:32.817Z,8.50
2023-04-10T20:59:07.659Z,8.40
2023-04-10T21:01:35.092Z,8.30
2023-04-10T21:04:02.867Z,8.20
2023-04-10T21:06:31.775Z,8.10
2023-04-10T21:08:58.855Z,8.10
2023-04-10T21:11:28.928Z,8.00
2023-04-10T21:13:56.033Z,7.90
2023-04-10T21:16:23.209Z,7.90
2023-04-10T21:21:18.634Z,7.80
2023-04-10T21:23:45.829Z,7.70
2023-04-10T21:26:13.029Z,7.60
2023-04-10T21:28:40.199Z,7.60
2023-04-10T21:31:07.478Z,7.60
2023-04-10T21:33:34.599Z,7.50
2023-04-10T21:36:01.842Z,7.40
2023-04-10T21:38:29.134Z,7.40
2023-04-10T21:40:56.338Z,7.40
2023-04-10T21:43:23.499Z,7.40
2023-04-10T21:45:50.648Z,7.30
2023-04-10T21:48:19.508Z,7.30
2023-04-10T21:50:47.192Z,7.30
2023-04-10T21:53:15.475Z,7.20
2023-04-10T21:55:42.631Z,7.10
2023-04-10T21:58:09.772Z,7.10
2023-04-10T22:00:36.904Z,7.10
2023-04-10T22:03:04.290Z,7.00
2023-04-10T22:05:31.884Z,7.00
2023-04-10T22:07:58.994Z,6.90
2023-04-10T22:10:26.151Z,6.90
2023-04-10T22:12:53.275Z,6.90
2023-04-10T22:15:20.598Z,6.90
2023-04-10T22:17:47.746Z,6.80
2023-04-10T22:20:14.934Z,6.80
2023-04-10T22:22:42.041Z,6.80
2023-04-10T22:25:09.499Z,6.70
2023-04-10T22:27:37.201Z,6.70
2023-04-10T22:30:04.919Z,6.60
2023-04-10T22:32:32.511Z,6.60
2023-04-10T22:35:00.291Z,6.50
2023-04-10T22:37:28.078Z,6.50
2023-04-10T22:39:58.043Z,6.50
2023-04-10T22:42:25.195Z,6.40
2023-04-10T22:44:52.346Z,6.40
2023-04-10T22:47:19.568Z,6.30
2023-04-10T22:49:46.630Z,6.30
2023-04-10T22:52:13.883Z,6.30
2023-04-10T22:54:40.995Z,6.20
2023-04-10T22:57:08.070Z,6.20
2023-04-10T22:59:38.714Z,6.10
2023-04-10T23:02:05.883Z,6.10
2023-04-10T23:04:33.160Z,6.10
2023-04-10T23:07:00.440Z,6.00
2023-04-10T23:09:28.586Z,6.00
2023-04-10T23:11:56.489Z,5.90
2023-04-10T23:14:23.632Z,5.90
2023-04-10T23:16:50.960Z,5.90
2023-04-10T23:19:19.093Z,5.90
2023-04-10T23:21:46.226Z,5.90
2023-04-10T23:24:13.332Z,5.80
2023-04-10T23:26:40.408Z,5.70
2023-04-10T23:29:07.548Z,5.70
2023-04-10T23:31:34.644Z,5.70
2023-04-10T23:34:01.783Z,5.70
2023-04-10T23:36:28.869Z,5.70
2023-04-10T23:38:56.103Z,5.70
2023-04-10T23:41:23.331Z,5.60
2023-04-10T23:43:50.510Z,5.60
2023-04-10T23:46:17.618Z,5.60
2023-04-10T23:48:44.738Z,5.50
2023-04-10T23:51:11.807Z,5.50
2023-04-10T23:53:38.918Z,5.50
2023-04-10T23:56:07.970Z,5.40
2023-04-10T23:58:35.256Z,5.40
